sensor_id;sensor_type;location;lat;lon;timestamp;P1;durP1;ratioP1;P2;durP2;ratioP2
55993;SDS011;67425;52.126;20.638;2023-06-26T00:00:22;11.43;;;7.30;;
55993;SDS011;67425;52.126;20.638;2023-06-26T00:02:47;12.68;;;7.07;;
55993;SDS011;67425;52.126;20.638;2023-06-26T00:05:12;11.55;;;7.85;;
55993;SDS011;67425;52.126;20.638;2023-06-26T00:07:38;12.02;;;7.15;;
55993;SDS011;67425;52.126;20.638;2023-06-26T00:10:04;13.73;;;7.40;;
55993;SDS011;67425;52.126;20.638;2023-06-26T00:12:30;10.43;;;7.35;;
55993;SDS011;67425;52.126;20.638;2023-06-26T00:14:56;15.15;;;8.20;;
55993;SDS011;67425;52.126;20.638;2023-06-26T00:17:22;15.43;;;7.80;;
55993;SDS011;67425;52.126;20.638;2023-06-26T00:19:48;12.38;;;7.93;;
55993;SDS011;67425;52.126;20.638;2023-06-26T00:22:13;15.27;;;8.23;;
55993;SDS011;67425;52.126;20.638;2023-06-26T00:24:39;12.43;;;7.38;;
55993;SDS011;67425;52.126;20.638;2023-06-26T00:27:04;9.70;;;6.82;;
55993;SDS011;67425;52.126;20.638;2023-06-26T00:29:30;15.40;;;8.40;;
55993;SDS011;67425;52.126;20.638;2023-06-26T00:31:55;12.20;;;7.75;;
55993;SDS011;67425;52.126;20.638;2023-06-26T00:34:20;19.73;;;8.15;;
55993;SDS011;67425;52.126;20.638;2023-06-26T00:36:46;15.07;;;8.27;;
55993;SDS011;67425;52.126;20.638;2023-06-26T00:39:11;17.02;;;7.82;;
55993;SDS011;67425;52.126;20.638;2023-06-26T00:41:37;13.23;;;7.88;;
55993;SDS011;67425;52.126;20.638;2023-06-26T00:44:05;13.35;;;7.45;;
55993;SDS011;67425;52.126;20.638;2023-06-26T00:46:31;15.98;;;8.20;;
55993;SDS011;67425;52.126;20.638;2023-06-26T00:49:00;10.80;;;7.88;;
55993;SDS011;67425;52.126;20.638;2023-06-26T00:51:28;20.65;;;8.32;;
55993;SDS011;67425;52.126;20.638;2023-06-26T00:53:54;17.33;;;7.88;;
55993;SDS011;67425;52.126;20.638;2023-06-26T00:56:20;14.63;;;7.65;;
55993;SDS011;67425;52.126;20.638;2023-06-26T00:58:45;21.02;;;7.70;;
55993;SDS011;67425;52.126;20.638;2023-06-26T01:01:11;14.98;;;7.20;;
55993;SDS011;67425;52.126;20.638;2023-06-26T01:03:42;11.43;;;7.63;;
55993;SDS011;67425;52.126;20.638;2023-06-26T01:06:08;10.90;;;7.05;;
55993;SDS011;67425;52.126;20.638;2023-06-26T01:08:36;14.32;;;7.10;;
55993;SDS011;67425;52.126;20.638;2023-06-26T01:11:03;15.60;;;8.05;;
55993;SDS011;67425;52.126;20.638;2023-06-26T01:13:29;16.40;;;7.60;;
55993;SDS011;67425;52.126;20.638;2023-06-26T01:15:55;14.65;;;7.30;;
55993;SDS011;67425;52.126;20.638;2023-06-26T01:18:22;11.95;;;7.68;;
55993;SDS011;67425;52.126;20.638;2023-06-26T01:20:48;22.17;;;8.13;;
55993;SDS011;67425;52.126;20.638;2023-06-26T01:26:19;16.08;;;7.70;;
55993;SDS011;67425;52.126;20.638;2023-06-26T01:28:45;12.27;;;7.70;;
55993;SDS011;67425;52.126;20.638;2023-06-26T01:31:12;15.52;;;7.97;;
55993;SDS011;67425;52.126;20.638;2023-06-26T01:33:39;11.02;;;7.05;;
55993;SDS011;67425;52.126;20.638;2023-06-26T01:36:05;12.25;;;7.10;;
55993;SDS011;67425;52.126;20.638;2023-06-26T01:38:31;13.00;;;6.90;;
55993;SDS011;67425;52.126;20.638;2023-06-26T01:40:57;14.10;;;7.43;;
55993;SDS011;67425;52.126;20.638;2023-06-26T01:46:04;15.25;;;7.40;;
55993;SDS011;67425;52.126;20.638;2023-06-26T01:48:51;10.55;;;7.47;;
55993;SDS011;67425;52.126;20.638;2023-06-26T01:51:19;13.27;;;7.82;;
55993;SDS011;67425;52.126;20.638;2023-06-26T01:53:52;14.57;;;7.38;;
55993;SDS011;67425;52.126;20.638;2023-06-26T01:56:20;12.75;;;7.47;;
55993;SDS011;67425;52.126;20.638;2023-06-26T01:58:48;12.65;;;7.57;;
55993;SDS011;67425;52.126;20.638;2023-06-26T02:01:18;15.55;;;7.50;;
55993;SDS011;67425;52.126;20.638;2023-06-26T02:03:43;13.95;;;7.93;;
55993;SDS011;67425;52.126;20.638;2023-06-26T02:06:09;18.95;;;8.45;;
55993;SDS011;67425;52.126;20.638;2023-06-26T02:08:34;17.90;;;8.77;;
55993;SDS011;67425;52.126;20.638;2023-06-26T02:10:59;16.02;;;8.18;;
55993;SDS011;67425;52.126;20.638;2023-06-26T02:13:25;15.70;;;7.68;;
55993;SDS011;67425;52.126;20.638;2023-06-26T02:15:50;11.30;;;7.80;;
55993;SDS011;67425;52.126;20.638;2023-06-26T02:18:15;13.20;;;8.32;;
55993;SDS011;67425;52.126;20.638;2023-06-26T02:20:41;13.30;;;8.05;;
55993;SDS011;67425;52.126;20.638;2023-06-26T02:23:06;15.43;;;8.15;;
55993;SDS011;67425;52.126;20.638;2023-06-26T02:25:31;13.23;;;7.90;;
55993;SDS011;67425;52.126;20.638;2023-06-26T02:27:56;11.30;;;7.57;;
55993;SDS011;67425;52.126;20.638;2023-06-26T02:30:22;12.43;;;7.65;;
55993;SDS011;67425;52.126;20.638;2023-06-26T02:32:47;13.15;;;7.65;;
55993;SDS011;67425;52.126;20.638;2023-06-26T02:35:12;15.23;;;8.75;;
55993;SDS011;67425;52.126;20.638;2023-06-26T02:37:38;15.15;;;7.78;;
55993;SDS011;67425;52.126;20.638;2023-06-26T02:40:03;12.20;;;7.60;;
55993;SDS011;67425;52.126;20.638;2023-06-26T02:42:30;12.63;;;7.78;;
55993;SDS011;67425;52.126;20.638;2023-06-26T02:44:56;12.30;;;7.28;;
55993;SDS011;67425;52.126;20.638;2023-06-26T02:47:22;11.70;;;7.57;;
55993;SDS011;67425;52.126;20.638;2023-06-26T02:49:47;11.15;;;7.38;;
55993;SDS011;67425;52.126;20.638;2023-06-26T02:52:12;11.27;;;7.60;;
55993;SDS011;67425;52.126;20.638;2023-06-26T02:54:38;10.88;;;7.07;;
55993;SDS011;67425;52.126;20.638;2023-06-26T02:57:03;11.27;;;7.78;;
55993;SDS011;67425;52.126;20.638;2023-06-26T02:59:29;12.60;;;8.45;;
55993;SDS011;67425;52.126;20.638;2023-06-26T03:01:54;13.68;;;7.22;;
55993;SDS011;67425;52.126;20.638;2023-06-26T03:04:19;19.13;;;7.35;;
55993;SDS011;67425;52.126;20.638;2023-06-26T03:06:46;10.65;;;7.45;;
55993;SDS011;67425;52.126;20.638;2023-06-26T03:09:12;10.88;;;7.72;;
55993;SDS011;67425;52.126;20.638;2023-06-26T03:11:37;12.30;;;8.15;;
55993;SDS011;67425;52.126;20.638;2023-06-26T03:14:02;12.93;;;8.15;;
55993;SDS011;67425;52.126;20.638;2023-06-26T03:16:28;16.77;;;7.43;;
55993;SDS011;67425;52.126;20.638;2023-06-26T03:18:53;13.98;;;8.55;;
55993;SDS011;67425;52.126;20.638;2023-06-26T03:21:18;13.15;;;7.78;;
55993;SDS011;67425;52.126;20.638;2023-06-26T03:23:43;10.30;;;7.13;;
55993;SDS011;67425;52.126;20.638;2023-06-26T03:26:09;12.98;;;7.95;;
55993;SDS011;67425;52.126;20.638;2023-06-26T03:28:34;14.60;;;7.82;;
55993;SDS011;67425;52.126;20.638;2023-06-26T03:31:00;19.20;;;8.25;;
55993;SDS011;67425;52.126;20.638;2023-06-26T03:33:25;12.25;;;7.50;;
55993;SDS011;67425;52.126;20.638;2023-06-26T03:35:50;11.57;;;6.43;;
55993;SDS011;67425;52.126;20.638;2023-06-26T03:38:16;10.75;;;7.70;;
55993;SDS011;67425;52.126;20.638;2023-06-26T03:40:41;15.65;;;8.88;;
55993;SDS011;67425;52.126;20.638;2023-06-26T03:43:06;16.08;;;8.32;;
55993;SDS011;67425;52.126;20.638;2023-06-26T03:45:32;11.52;;;7.63;;
55993;SDS011;67425;52.126;20.638;2023-06-26T03:47:57;15.38;;;7.10;;
55993;SDS011;67425;52.126;20.638;2023-06-26T03:50:22;12.15;;;7.47;;
55993;SDS011;67425;52.126;20.638;2023-06-26T03:52:48;12.32;;;7.68;;
55993;SDS011;67425;52.126;20.638;2023-06-26T03:55:15;11.50;;;8.02;;
55993;SDS011;67425;52.126;20.638;2023-06-26T03:57:40;15.55;;;8.55;;
55993;SDS011;67425;52.126;20.638;2023-06-26T04:00:06;12.00;;;7.68;;
55993;SDS011;67425;52.126;20.638;2023-06-26T04:02:37;11.25;;;7.53;;
55993;SDS011;67425;52.126;20.638;2023-06-26T04:05:03;11.20;;;8.15;;
55993;SDS011;67425;52.126;20.638;2023-06-26T04:07:29;12.77;;;8.65;;
55993;SDS011;67425;52.126;20.638;2023-06-26T04:09:56;16.20;;;8.10;;
55993;SDS011;67425;52.126;20.638;2023-06-26T04:12:21;9.95;;;8.05;;
55993;SDS011;67425;52.126;20.638;2023-06-26T04:14:47;16.75;;;8.65;;
55993;SDS011;67425;52.126;20.638;2023-06-26T04:17:12;14.75;;;8.45;;
55993;SDS011;67425;52.126;20.638;2023-06-26T04:19:37;16.02;;;8.85;;
55993;SDS011;67425;52.126;20.638;2023-06-26T04:22:03;15.45;;;9.00;;
55993;SDS011;67425;52.126;20.638;2023-06-26T04:24:28;13.70;;;8.88;;
55993;SDS011;67425;52.126;20.638;2023-06-26T04:26:54;13.25;;;8.10;;
55993;SDS011;67425;52.126;20.638;2023-06-26T04:29:22;13.15;;;8.30;;
55993;SDS011;67425;52.126;20.638;2023-06-26T04:31:50;16.77;;;8.68;;
55993;SDS011;67425;52.126;20.638;2023-06-26T04:34:16;16.17;;;9.75;;
55993;SDS011;67425;52.126;20.638;2023-06-26T04:36:41;13.80;;;8.82;;
55993;SDS011;67425;52.126;20.638;2023-06-26T04:39:11;18.60;;;8.30;;
55993;SDS011;67425;52.126;20.638;2023-06-26T04:41:37;13.10;;;8.73;;
55993;SDS011;67425;52.126;20.638;2023-06-26T04:44:02;11.82;;;8.10;;
55993;SDS011;67425;52.126;20.638;2023-06-26T04:46:27;10.57;;;7.78;;
55993;SDS011;67425;52.126;20.638;2023-06-26T04:48:53;14.05;;;8.52;;
55993;SDS011;67425;52.126;20.638;2023-06-26T04:51:18;16.08;;;8.95;;
55993;SDS011;67425;52.126;20.638;2023-06-26T04:53:45;14.88;;;9.02;;
55993;SDS011;67425;52.126;20.638;2023-06-26T04:56:11;15.00;;;8.65;;
55993;SDS011;67425;52.126;20.638;2023-06-26T04:58:36;21.90;;;9.10;;
55993;SDS011;67425;52.126;20.638;2023-06-26T05:01:02;12.85;;;8.52;;
55993;SDS011;67425;52.126;20.638;2023-06-26T05:03:27;16.20;;;8.57;;
55993;SDS011;67425;52.126;20.638;2023-06-26T05:05:52;16.00;;;8.57;;
55993;SDS011;67425;52.126;20.638;2023-06-26T05:08:20;14.95;;;8.63;;
55993;SDS011;67425;52.126;20.638;2023-06-26T05:10:46;27.98;;;7.82;;
55993;SDS011;67425;52.126;20.638;2023-06-26T05:13:12;17.80;;;13.20;;
55993;SDS011;67425;52.126;20.638;2023-06-26T05:15:40;14.27;;;8.25;;
55993;SDS011;67425;52.126;20.638;2023-06-26T05:18:07;18.27;;;10.05;;
55993;SDS011;67425;52.126;20.638;2023-06-26T05:20:33;23.80;;;10.40;;
55993;SDS011;67425;52.126;20.638;2023-06-26T05:22:59;12.88;;;8.73;;
55993;SDS011;67425;52.126;20.638;2023-06-26T05:25:26;17.20;;;8.45;;
55993;SDS011;67425;52.126;20.638;2023-06-26T05:27:54;14.77;;;8.85;;
55993;SDS011;67425;52.126;20.638;2023-06-26T05:30:20;11.80;;;8.13;;
55993;SDS011;67425;52.126;20.638;2023-06-26T05:32:46;15.35;;;8.75;;
55993;SDS011;67425;52.126;20.638;2023-06-26T05:35:12;23.67;;;8.77;;
55993;SDS011;67425;52.126;20.638;2023-06-26T05:37:38;15.85;;;8.57;;
55993;SDS011;67425;52.126;20.638;2023-06-26T05:40:04;12.60;;;8.32;;
55993;SDS011;67425;52.126;20.638;2023-06-26T05:42:30;12.80;;;8.10;;
55993;SDS011;67425;52.126;20.638;2023-06-26T05:44:56;17.30;;;8.45;;
55993;SDS011;67425;52.126;20.638;2023-06-26T05:47:21;16.52;;;7.97;;
55993;SDS011;67425;52.126;20.638;2023-06-26T05:49:47;15.38;;;8.95;;
55993;SDS011;67425;52.126;20.638;2023-06-26T05:52:12;13.73;;;8.02;;
55993;SDS011;67425;52.126;20.638;2023-06-26T05:54:38;11.73;;;7.32;;
55993;SDS011;67425;52.126;20.638;2023-06-26T05:57:04;15.98;;;7.63;;
55993;SDS011;67425;52.126;20.638;2023-06-26T05:59:32;12.85;;;7.35;;
55993;SDS011;67425;52.126;20.638;2023-06-26T06:02:01;17.10;;;7.93;;
55993;SDS011;67425;52.126;20.638;2023-06-26T06:04:26;15.27;;;7.28;;
55993;SDS011;67425;52.126;20.638;2023-06-26T06:06:52;8.93;;;6.90;;
55993;SDS011;67425;52.126;20.638;2023-06-26T06:09:17;9.38;;;7.22;;
55993;SDS011;67425;52.126;20.638;2023-06-26T06:11:43;16.42;;;8.85;;
55993;SDS011;67425;52.126;20.638;2023-06-26T06:14:08;19.20;;;7.13;;
55993;SDS011;67425;52.126;20.638;2023-06-26T06:16:33;16.60;;;8.05;;
55993;SDS011;67425;52.126;20.638;2023-06-26T06:18:59;15.35;;;7.03;;
55993;SDS011;67425;52.126;20.638;2023-06-26T06:21:24;20.10;;;8.13;;
55993;SDS011;67425;52.126;20.638;2023-06-26T06:23:49;10.35;;;7.45;;
55993;SDS011;67425;52.126;20.638;2023-06-26T06:26:15;10.23;;;6.82;;
55993;SDS011;67425;52.126;20.638;2023-06-26T06:28:40;8.25;;;6.43;;
55993;SDS011;67425;52.126;20.638;2023-06-26T06:31:05;7.60;;;5.47;;
55993;SDS011;67425;52.126;20.638;2023-06-26T06:33:31;9.93;;;6.50;;
55993;SDS011;67425;52.126;20.638;2023-06-26T06:35:56;11.40;;;6.30;;
55993;SDS011;67425;52.126;20.638;2023-06-26T06:38:22;8.40;;;6.30;;
55993;SDS011;67425;52.126;20.638;2023-06-26T06:40:47;8.88;;;6.40;;
55993;SDS011;67425;52.126;20.638;2023-06-26T06:43:13;7.72;;;6.25;;
55993;SDS011;67425;52.126;20.638;2023-06-26T06:45:39;7.95;;;5.57;;
55993;SDS011;67425;52.126;20.638;2023-06-26T06:48:04;9.77;;;6.00;;
55993;SDS011;67425;52.126;20.638;2023-06-26T06:50:30;10.48;;;6.13;;
55993;SDS011;67425;52.126;20.638;2023-06-26T06:52:56;6.32;;;5.70;;
55993;SDS011;67425;52.126;20.638;2023-06-26T06:55:21;9.25;;;5.50;;
55993;SDS011;67425;52.126;20.638;2023-06-26T06:57:47;17.05;;;6.07;;
55993;SDS011;67425;52.126;20.638;2023-06-26T07:00:12;13.68;;;9.02;;
55993;SDS011;67425;52.126;20.638;2023-06-26T07:02:44;14.50;;;6.30;;
55993;SDS011;67425;52.126;20.638;2023-06-26T07:05:11;11.63;;;6.07;;
55993;SDS011;67425;52.126;20.638;2023-06-26T07:07:37;8.65;;;6.07;;
55993;SDS011;67425;52.126;20.638;2023-06-26T07:10:05;6.40;;;5.80;;
55993;SDS011;67425;52.126;20.638;2023-06-26T07:12:32;13.25;;;6.63;;
55993;SDS011;67425;52.126;20.638;2023-06-26T07:14:59;13.07;;;8.13;;
55993;SDS011;67425;52.126;20.638;2023-06-26T07:17:26;9.27;;;6.35;;
55993;SDS011;67425;52.126;20.638;2023-06-26T07:19:51;10.25;;;6.10;;
55993;SDS011;67425;52.126;20.638;2023-06-26T07:22:16;6.65;;;6.05;;
55993;SDS011;67425;52.126;20.638;2023-06-26T07:24:45;19.13;;;5.45;;
55993;SDS011;67425;52.126;20.638;2023-06-26T07:27:10;8.05;;;5.68;;
55993;SDS011;67425;52.126;20.638;2023-06-26T07:29:35;8.02;;;4.78;;
55993;SDS011;67425;52.126;20.638;2023-06-26T07:32:01;5.20;;;4.70;;
55993;SDS011;67425;52.126;20.638;2023-06-26T07:34:26;9.67;;;5.30;;
55993;SDS011;67425;52.126;20.638;2023-06-26T07:36:51;10.30;;;6.10;;
55993;SDS011;67425;52.126;20.638;2023-06-26T07:39:17;5.70;;;5.18;;
55993;SDS011;67425;52.126;20.638;2023-06-26T07:41:42;5.60;;;4.73;;
55993;SDS011;67425;52.126;20.638;2023-06-26T07:44:07;6.60;;;4.95;;
55993;SDS011;67425;52.126;20.638;2023-06-26T07:46:33;7.10;;;5.53;;
55993;SDS011;67425;52.126;20.638;2023-06-26T07:48:58;6.00;;;4.32;;
55993;SDS011;67425;52.126;20.638;2023-06-26T07:51:23;5.93;;;4.20;;
55993;SDS011;67425;52.126;20.638;2023-06-26T07:53:49;8.93;;;4.72;;
55993;SDS011;67425;52.126;20.638;2023-06-26T07:56:14;4.60;;;3.92;;
55993;SDS011;67425;52.126;20.638;2023-06-26T07:58:39;7.22;;;5.15;;
55993;SDS011;67425;52.126;20.638;2023-06-26T08:01:05;22.70;;;5.47;;
55993;SDS011;67425;52.126;20.638;2023-06-26T08:03:30;7.22;;;4.93;;
55993;SDS011;67425;52.126;20.638;2023-06-26T08:05:55;6.28;;;5.20;;
55993;SDS011;67425;52.126;20.638;2023-06-26T08:08:21;13.05;;;5.20;;
55993;SDS011;67425;52.126;20.638;2023-06-26T08:10:46;8.20;;;4.60;;
55993;SDS011;67425;52.126;20.638;2023-06-26T08:13:11;5.72;;;4.30;;
55993;SDS011;67425;52.126;20.638;2023-06-26T08:15:37;7.82;;;4.38;;
55993;SDS011;67425;52.126;20.638;2023-06-26T08:18:02;4.97;;;4.57;;
55993;SDS011;67425;52.126;20.638;2023-06-26T08:20:28;8.40;;;5.18;;
55993;SDS011;67425;52.126;20.638;2023-06-26T08:22:53;5.17;;;4.67;;
55993;SDS011;67425;52.126;20.638;2023-06-26T08:25:19;5.03;;;4.57;;
55993;SDS011;67425;52.126;20.638;2023-06-26T08:27:45;5.35;;;4.38;;
55993;SDS011;67425;52.126;20.638;2023-06-26T08:30:10;6.47;;;4.10;;
55993;SDS011;67425;52.126;20.638;2023-06-26T08:32:36;4.45;;;4.05;;
55993;SDS011;67425;52.126;20.638;2023-06-26T08:35:01;9.40;;;4.50;;
55993;SDS011;67425;52.126;20.638;2023-06-26T08:37:27;5.93;;;4.13;;
55993;SDS011;67425;52.126;20.638;2023-06-26T08:39:52;7.40;;;4.20;;
55993;SDS011;67425;52.126;20.638;2023-06-26T08:42:17;4.40;;;4.10;;
55993;SDS011;67425;52.126;20.638;2023-06-26T08:44:43;6.57;;;4.30;;
55993;SDS011;67425;52.126;20.638;2023-06-26T08:47:08;5.15;;;4.65;;
55993;SDS011;67425;52.126;20.638;2023-06-26T08:49:40;4.90;;;4.43;;
55993;SDS011;67425;52.126;20.638;2023-06-26T08:52:22;6.93;;;4.65;;
55993;SDS011;67425;52.126;20.638;2023-06-26T08:54:51;3.88;;;3.58;;
55993;SDS011;67425;52.126;20.638;2023-06-26T08:57:22;3.80;;;3.42;;
55993;SDS011;67425;52.126;20.638;2023-06-26T08:59:48;3.85;;;3.55;;
55993;SDS011;67425;52.126;20.638;2023-06-26T09:02:14;6.05;;;3.47;;
55993;SDS011;67425;52.126;20.638;2023-06-26T09:04:40;6.65;;;4.38;;
55993;SDS011;67425;52.126;20.638;2023-06-26T09:07:06;5.43;;;4.72;;
55993;SDS011;67425;52.126;20.638;2023-06-26T09:09:32;5.47;;;3.83;;
55993;SDS011;67425;52.126;20.638;2023-06-26T09:11:57;11.35;;;3.65;;
55993;SDS011;67425;52.126;20.638;2023-06-26T09:14:23;5.15;;;3.78;;
55993;SDS011;67425;52.126;20.638;2023-06-26T09:16:48;11.65;;;3.80;;
55993;SDS011;67425;52.126;20.638;2023-06-26T09:19:14;10.75;;;3.85;;
55993;SDS011;67425;52.126;20.638;2023-06-26T09:21:41;4.10;;;3.72;;
55993;SDS011;67425;52.126;20.638;2023-06-26T09:24:07;6.22;;;3.70;;
55993;SDS011;67425;52.126;20.638;2023-06-26T09:26:35;5.53;;;3.65;;
55993;SDS011;67425;52.126;20.638;2023-06-26T09:29:02;6.30;;;4.43;;
55993;SDS011;67425;52.126;20.638;2023-06-26T09:31:27;4.38;;;3.45;;
55993;SDS011;67425;52.126;20.638;2023-06-26T09:34:00;2.83;;;2.63;;
55993;SDS011;67425;52.126;20.638;2023-06-26T09:36:27;3.83;;;2.75;;
55993;SDS011;67425;52.126;20.638;2023-06-26T09:38:54;3.33;;;3.13;;
55993;SDS011;67425;52.126;20.638;2023-06-26T09:41:19;3.55;;;3.25;;
55993;SDS011;67425;52.126;20.638;2023-06-26T09:43:48;5.75;;;3.00;;
55993;SDS011;67425;52.126;20.638;2023-06-26T09:46:32;5.68;;;3.70;;
55993;SDS011;67425;52.126;20.638;2023-06-26T09:48:59;3.92;;;2.72;;
55993;SDS011;67425;52.126;20.638;2023-06-26T09:51:28;4.65;;;4.22;;
55993;SDS011;67425;52.126;20.638;2023-06-26T09:53:55;5.07;;;3.45;;
55993;SDS011;67425;52.126;20.638;2023-06-26T09:56:20;3.93;;;3.13;;
55993;SDS011;67425;52.126;20.638;2023-06-26T09:58:46;4.90;;;2.83;;
55993;SDS011;67425;52.126;20.638;2023-06-26T10:01:12;3.70;;;2.95;;
55993;SDS011;67425;52.126;20.638;2023-06-26T10:03:38;3.67;;;3.08;;
55993;SDS011;67425;52.126;20.638;2023-06-26T10:06:04;4.60;;;2.77;;
55993;SDS011;67425;52.126;20.638;2023-06-26T10:08:30;3.13;;;2.83;;
55993;SDS011;67425;52.126;20.638;2023-06-26T10:10:56;2.92;;;2.70;;
55993;SDS011;67425;52.126;20.638;2023-06-26T10:13:24;5.43;;;3.22;;
55993;SDS011;67425;52.126;20.638;2023-06-26T10:15:53;3.13;;;2.92;;
55993;SDS011;67425;52.126;20.638;2023-06-26T10:18:19;3.67;;;3.33;;
55993;SDS011;67425;52.126;20.638;2023-06-26T10:20:48;4.97;;;2.97;;
55993;SDS011;67425;52.126;20.638;2023-06-26T10:23:15;3.25;;;2.92;;
55993;SDS011;67425;52.126;20.638;2023-06-26T10:25:44;4.00;;;2.90;;
55993;SDS011;67425;52.126;20.638;2023-06-26T10:28:11;2.75;;;2.55;;
55993;SDS011;67425;52.126;20.638;2023-06-26T10:30:38;4.05;;;2.80;;
55993;SDS011;67425;52.126;20.638;2023-06-26T10:33:04;4.90;;;3.10;;
55993;SDS011;67425;52.126;20.638;2023-06-26T10:35:32;2.80;;;2.60;;
55993;SDS011;67425;52.126;20.638;2023-06-26T10:38:00;4.07;;;3.00;;
55993;SDS011;67425;52.126;20.638;2023-06-26T10:40:52;2.70;;;2.50;;
55993;SDS011;67425;52.126;20.638;2023-06-26T10:43:17;3.03;;;2.83;;
55993;SDS011;67425;52.126;20.638;2023-06-26T10:45:47;2.63;;;2.50;;
55993;SDS011;67425;52.126;20.638;2023-06-26T10:48:19;3.22;;;3.03;;
55993;SDS011;67425;52.126;20.638;2023-06-26T10:50:48;5.00;;;2.47;;
55993;SDS011;67425;52.126;20.638;2023-06-26T11:03:38;3.13;;;2.83;;
55993;SDS011;67425;52.126;20.638;2023-06-26T11:06:13;7.50;;;2.70;;
55993;SDS011;67425;52.126;20.638;2023-06-26T11:08:47;2.67;;;2.47;;
55993;SDS011;67425;52.126;20.638;2023-06-26T11:11:14;4.22;;;2.65;;
55993;SDS011;67425;52.126;20.638;2023-06-26T11:13:39;8.60;;;2.50;;
55993;SDS011;67425;52.126;20.638;2023-06-26T11:16:05;2.55;;;2.45;;
55993;SDS011;67425;52.126;20.638;2023-06-26T11:18:31;6.07;;;3.60;;
55993;SDS011;67425;52.126;20.638;2023-06-26T11:21:04;7.38;;;3.28;;
55993;SDS011;67425;52.126;20.638;2023-06-26T11:23:30;5.03;;;3.70;;
55993;SDS011;67425;52.126;20.638;2023-06-26T11:26:11;3.20;;;2.90;;
55993;SDS011;67425;52.126;20.638;2023-06-26T11:28:53;4.18;;;3.88;;
55993;SDS011;67425;52.126;20.638;2023-06-26T11:34:02;3.47;;;2.90;;
55993;SDS011;67425;52.126;20.638;2023-06-26T11:36:29;3.42;;;2.92;;
55993;SDS011;67425;52.126;20.638;2023-06-26T11:38:55;3.85;;;3.28;;
55993;SDS011;67425;52.126;20.638;2023-06-26T11:41:22;4.82;;;2.90;;
55993;SDS011;67425;52.126;20.638;2023-06-26T11:44:01;3.65;;;3.22;;
55993;SDS011;67425;52.126;20.638;2023-06-26T11:46:27;3.92;;;3.60;;
55993;SDS011;67425;52.126;20.638;2023-06-26T11:48:53;3.53;;;3.13;;
55993;SDS011;67425;52.126;20.638;2023-06-26T11:51:19;5.05;;;4.07;;
55993;SDS011;67425;52.126;20.638;2023-06-26T11:53:45;6.10;;;3.10;;
55993;SDS011;67425;52.126;20.638;2023-06-26T11:56:12;2.78;;;2.58;;
55993;SDS011;67425;52.126;20.638;2023-06-26T12:01:32;4.55;;;3.35;;
55993;SDS011;67425;52.126;20.638;2023-06-26T12:03:59;8.20;;;3.83;;
55993;SDS011;67425;52.126;20.638;2023-06-26T12:06:29;3.15;;;2.95;;
55993;SDS011;67425;52.126;20.638;2023-06-26T12:08:56;2.90;;;2.72;;
55993;SDS011;67425;52.126;20.638;2023-06-26T12:11:24;3.58;;;3.20;;
55993;SDS011;67425;52.126;20.638;2023-06-26T12:13:50;7.15;;;3.35;;
55993;SDS011;67425;52.126;20.638;2023-06-26T12:16:16;3.55;;;3.13;;
55993;SDS011;67425;52.126;20.638;2023-06-26T12:18:41;3.58;;;3.38;;
55993;SDS011;67425;52.126;20.638;2023-06-26T12:21:07;3.92;;;3.53;;
55993;SDS011;67425;52.126;20.638;2023-06-26T12:23:33;2.33;;;2.13;;
55993;SDS011;67425;52.126;20.638;2023-06-26T12:26:15;3.78;;;2.88;;
55993;SDS011;67425;52.126;20.638;2023-06-26T12:28:41;3.67;;;3.33;;
55993;SDS011;67425;52.126;20.638;2023-06-26T12:31:15;12.77;;;3.13;;
55993;SDS011;67425;52.126;20.638;2023-06-26T12:33:45;4.40;;;3.47;;
55993;SDS011;67425;52.126;20.638;2023-06-26T12:36:14;3.15;;;2.95;;
55993;SDS011;67425;52.126;20.638;2023-06-26T12:38:44;3.42;;;3.13;;
55993;SDS011;67425;52.126;20.638;2023-06-26T12:41:14;3.53;;;3.00;;
55993;SDS011;67425;52.126;20.638;2023-06-26T12:43:40;4.00;;;3.10;;
55993;SDS011;67425;52.126;20.638;2023-06-26T12:46:06;3.90;;;3.40;;
55993;SDS011;67425;52.126;20.638;2023-06-26T12:48:38;4.57;;;3.50;;
55993;SDS011;67425;52.126;20.638;2023-06-26T12:51:15;4.72;;;3.08;;
55993;SDS011;67425;52.126;20.638;2023-06-26T12:53:41;3.45;;;3.25;;
55993;SDS011;67425;52.126;20.638;2023-06-26T12:56:08;5.65;;;3.33;;
55993;SDS011;67425;52.126;20.638;2023-06-26T12:58:34;3.90;;;3.50;;
55993;SDS011;67425;52.126;20.638;2023-06-26T13:01:05;3.63;;;3.33;;
55993;SDS011;67425;52.126;20.638;2023-06-26T13:03:39;7.53;;;3.67;;
55993;SDS011;67425;52.126;20.638;2023-06-26T13:06:05;3.17;;;2.97;;
55993;SDS011;67425;52.126;20.638;2023-06-26T13:08:31;4.82;;;4.07;;
55993;SDS011;67425;52.126;20.638;2023-06-26T13:10:58;4.57;;;3.28;;
55993;SDS011;67425;52.126;20.638;2023-06-26T13:13:23;8.05;;;3.58;;
55993;SDS011;67425;52.126;20.638;2023-06-26T13:15:48;7.18;;;3.90;;
55993;SDS011;67425;52.126;20.638;2023-06-26T13:18:14;3.30;;;3.10;;
55993;SDS011;67425;52.126;20.638;2023-06-26T13:20:39;5.47;;;3.28;;
55993;SDS011;67425;52.126;20.638;2023-06-26T13:23:05;7.30;;;3.95;;
55993;SDS011;67425;52.126;20.638;2023-06-26T13:25:30;3.55;;;3.28;;
55993;SDS011;67425;52.126;20.638;2023-06-26T13:27:56;3.90;;;3.58;;
55993;SDS011;67425;52.126;20.638;2023-06-26T13:30:21;3.40;;;3.20;;
55993;SDS011;67425;52.126;20.638;2023-06-26T13:32:47;3.70;;;3.05;;
55993;SDS011;67425;52.126;20.638;2023-06-26T13:35:12;3.85;;;3.55;;
55993;SDS011;67425;52.126;20.638;2023-06-26T13:37:38;23.08;;;11.77;;
55993;SDS011;67425;52.126;20.638;2023-06-26T13:40:04;14.88;;;7.90;;
55993;SDS011;67425;52.126;20.638;2023-06-26T13:42:31;9.00;;;3.55;;
55993;SDS011;67425;52.126;20.638;2023-06-26T13:44:57;3.50;;;3.20;;
55993;SDS011;67425;52.126;20.638;2023-06-26T13:47:22;4.15;;;3.63;;
55993;SDS011;67425;52.126;20.638;2023-06-26T13:49:48;4.22;;;3.78;;
55993;SDS011;67425;52.126;20.638;2023-06-26T13:52:13;7.30;;;3.65;;
55993;SDS011;67425;52.126;20.638;2023-06-26T13:54:39;3.40;;;3.10;;
55993;SDS011;67425;52.126;20.638;2023-06-26T13:57:08;5.50;;;3.40;;
55993;SDS011;67425;52.126;20.638;2023-06-26T13:59:33;4.15;;;3.63;;
55993;SDS011;67425;52.126;20.638;2023-06-26T14:02:02;3.92;;;3.45;;
55993;SDS011;67425;52.126;20.638;2023-06-26T14:04:29;3.65;;;3.35;;
55993;SDS011;67425;52.126;20.638;2023-06-26T14:06:54;8.83;;;3.80;;
55993;SDS011;67425;52.126;20.638;2023-06-26T14:09:20;3.87;;;3.57;;
55993;SDS011;67425;52.126;20.638;2023-06-26T14:11:45;8.77;;;4.40;;
55993;SDS011;67425;52.126;20.638;2023-06-26T14:14:10;4.40;;;3.22;;
55993;SDS011;67425;52.126;20.638;2023-06-26T14:16:36;3.45;;;3.03;;
55993;SDS011;67425;52.126;20.638;2023-06-26T14:19:01;8.70;;;3.83;;
55993;SDS011;67425;52.126;20.638;2023-06-26T14:21:27;5.40;;;3.53;;
55993;SDS011;67425;52.126;20.638;2023-06-26T14:23:52;5.82;;;3.65;;
55993;SDS011;67425;52.126;20.638;2023-06-26T14:26:18;2.40;;;2.20;;
55993;SDS011;67425;52.126;20.638;2023-06-26T14:28:43;9.52;;;3.80;;
55993;SDS011;67425;52.126;20.638;2023-06-26T14:31:10;6.95;;;3.30;;
55993;SDS011;67425;52.126;20.638;2023-06-26T14:33:35;4.78;;;3.47;;
55993;SDS011;67425;52.126;20.638;2023-06-26T14:36:00;3.97;;;3.30;;
55993;SDS011;67425;52.126;20.638;2023-06-26T14:38:25;3.93;;;3.60;;
55993;SDS011;67425;52.126;20.638;2023-06-26T14:40:51;9.17;;;3.10;;
55993;SDS011;67425;52.126;20.638;2023-06-26T14:43:16;4.23;;;3.37;;
55993;SDS011;67425;52.126;20.638;2023-06-26T14:45:41;2.95;;;2.75;;